Latest Weather Observations for Williamson

IDQ60801

Issued at 12:02 pm EST Sunday 2 August 2015 (issued every 30 minutes, with the page automatically refreshed every 10 minutes)

About weather observations | Map of weather stations | Latest weather observations for QLD | Other Formats
Station Details ID: 033195 Name: WILLIAMSON Lat: -22.47 Lon: 150.18 Height: 27.6 m
Data from the previous 72 hours. | See also: Recent months at Williamson
Date/Time
EST
Temp
°C
App
Temp
°C
Dew
Point
Rel
Hum
%
Delta-T
°C
Wind Press
QNH
hPa
Press
MSL
hPa
Rain
since 9 am
mm
Dir
 
Spd
km/h
Gust
km/h
Spd
kts
Gust
kts
02/12:00pm 23.7 22.9 14.1 55 5.6 ENE 11 17 6 9 1022.2 1022.1 0.0
02/11:30am 23.6 23.4 14.6 57 5.3 NE 9 20 5 11 1022.6 1022.5 0.0
02/11:00am 22.9 21.8 14.2 58 5.1 ENE 13 20 7 11 1023.0 1023.0 0.0
02/10:30am 23.7 23.0 14.4 56 5.5 NE 11 20 6 11 1023.0 1023.0 0.0
02/10:00am 22.8 21.4 14.6 60 4.8 E 15 26 8 14 1023.1 1023.1 0.0
02/09:30am 22.6 21.5 14.2 59 4.9 E 13 22 7 12 1023.0 1023.0 0.0
02/09:00am 20.5 21.5 14.2 67 3.6 WNW 2 7 1 4 1022.8 1022.7 0.0
02/08:30am 17.4 18.1 13.5 78 2.2 SSW 2 6 1 3 1022.7 1022.6 0.0
02/08:00am 14.2 14.6 12.4 89 1.0 WSW 2 6 1 3 1022.5 1022.4 0.0
02/07:30am 10.8 10.7 9.4 91 0.7 CALM 0 0 0 0 1022.4 1022.3 0.0
02/07:00am 8.7 8.2 7.9 95 0.4 CALM 0 0 0 0 1022.2 1022.1 0.0
02/06:30am 8.5 7.9 7.6 94 0.4 CALM 0 0 0 0 1022.0 1021.9 0.0
02/06:00am 8.9 8.5 8.1 95 0.4 CALM 0 0 0 0 1021.7 1021.6 0.0
02/05:30am 8.8 8.3 7.9 94 0.4 CALM 0 0 0 0 1021.5 1021.4 0.0
02/05:00am 9.0 8.6 8.2 95 0.4 CALM 0 0 0 0 1021.2 1021.1 0.0
02/04:30am 9.2 8.8 8.4 95 0.4 CALM 0 0 0 0 1021.1 1021.0 0.0
02/04:00am 9.1 8.7 8.2 94 0.4 CALM 0 0 0 0 1021.3 1021.2 0.0
02/03:30am 9.6 9.2 8.4 92 0.6 CALM 0 0 0 0 1021.5 1021.4 0.0
02/03:00am 9.8 9.4 8.4 91 0.7 CALM 0 0 0 0 1021.6 1021.5 0.0
02/02:30am 10.0 9.7 8.8 92 0.6 CALM 0 0 0 0 1021.7 1021.6 0.0
02/02:00am 10.3 10.0 8.7 90 0.8 CALM 0 0 0 0 1021.8 1021.7 0.0
02/01:30am 10.6 10.4 9.0 90 0.8 CALM 0 0 0 0 1022.1 1022.0 0.0
02/01:00am 11.4 11.3 9.5 88 1.0 CALM 0 0 0 0 1022.4 1022.3 0.0
02/12:30am 12.6 12.9 10.8 89 0.9 CALM 0 0 0 0 1022.5 1022.4 0.0
02/12:00am 13.7 13.9 10.5 81 1.7 CALM 0 0 0 0 1022.5 1022.4 0.0
 
Date/Time
EST
Temp
°C
App
Temp
°C
Dew
Point
Rel
Hum
%
Delta-T
°C
Wind Press
QNH
hPa
Press
MSL
hPa
Rain
since 9 am
mm
Dir
 
Spd
km/h
Gust
km/h
Spd
kts
Gust
kts
01/11:30pm 15.5 15.6 12.6 83 1.6 SSE 4 7 2 4 1022.4 1022.3 0.0
01/11:00pm 17.8 18.0 14.1 79 2.1 ESE 6 11 3 6 1022.4 1022.3 0.0
01/10:30pm 17.6 17.6 14.1 80 2.0 E 7 11 4 6 1022.3 1022.2 0.0
01/10:00pm 16.8 16.4 12.5 76 2.4 E 6 9 3 5 1022.3 1022.2 0.0
01/09:30pm 17.3 16.4 11.3 68 3.3 ESE 7 13 4 7 1022.2 1022.1 0.0
01/09:00pm 17.7 17.0 11.3 66 3.5 ESE 6 7 3 4 1022.2 1022.1 0.0
01/08:30pm 18.5 17.6 11.3 63 3.9 E 7 13 4 7 1022.1 1022.0 0.0
01/08:00pm 18.9 17.6 11.2 61 4.2 E 9 17 5 9 1021.7 1021.6 0.0
01/07:30pm 19.1 17.5 11.7 62 4.1 E 11 17 6 9 1021.4 1021.3 0.0
01/07:00pm 19.1 17.8 11.4 61 4.2 E 9 17 5 9 1021.1 1021.0 0.0
01/06:30pm 19.4 17.9 10.7 57 4.7 ENE 9 17 5 9 1020.8 1020.7 0.0
01/06:00pm 20.2 18.5 10.0 52 5.5 E 9 13 5 7 1020.7 1020.6 0.0
01/05:30pm 21.6 19.4 9.5 46 6.5 ENE 11 20 6 11 1020.6 1020.5 0.0
01/05:00pm 22.7 19.9 8.4 40 7.6 E 13 22 7 12 1020.4 1020.3 0.0
01/04:30pm 23.5 20.7 8.4 38 8.0 ENE 13 22 7 12 1020.2 1020.1 0.0
01/04:00pm 23.9 20.9 7.5 35 8.6 ENE 13 22 7 12 1020.2 1020.1 0.0
01/03:30pm 24.3 20.9 6.1 31 9.3 E 13 22 7 12 1020.1 1020.0 0.0
01/03:00pm 24.4 21.1 6.6 32 9.2 E 13 20 7 11 1020.3 1020.2 0.0
01/02:30pm 24.6 21.8 6.8 32 9.3 ENE 11 19 6 10 1020.4 1020.3 0.0
01/02:00pm 24.5 21.0 7.2 33 9.0 ENE 15 24 8 13 1020.6 1020.5 0.0
01/01:30pm 24.3 21.8 8.3 36 8.5 ENE 11 22 6 12 1021.0 1020.9 0.0
01/01:00pm 24.2 20.6 8.2 36 8.5 NE 17 24 9 13 1021.5 1021.4 0.0
01/12:30pm 24.2 21.5 9.0 38 8.2 ESE 13 22 7 12 1022.1 1022.0 0.0
01/12:00pm 23.8 21.3 9.8 41 7.6 ESE 13 24 7 13 1022.4 1022.3 0.0
01/11:30am 23.9 20.5 9.1 39 8.0 NE 17 32 9 17 1022.8 1022.7 0.0
01/11:00am 23.7 20.6 10.4 43 7.3 ENE 17 28 9 15 1023.2 1023.2 0.0
01/10:30am 23.3 20.4 11.0 46 6.8 E 17 22 9 12 1023.4 1023.4 0.0
01/10:00am 22.6 20.7 11.7 50 6.1 E 13 24 7 13 1023.6 1023.6 0.0
01/09:30am 22.4 20.8 12.9 55 5.4 E 13 22 7 12 1023.6 1023.6 0.0
01/09:00am 19.7 21.1 14.3 71 3.1 CALM 0 0 0 0 1023.4 1023.4 0.0
01/08:30am 16.0 17.0 13.1 83 1.6 CALM 0 0 0 0 1023.2 1023.2 0.0
01/08:00am 13.4 14.2 12.6 95 0.4 CALM 0 0 0 0 1023.0 1023.0 0.0
01/07:30am 10.3 10.4 10.0 98 0.2 CALM 0 0 0 0 1022.8 1022.8 0.0
01/07:00am 7.7 7.1 7.4 98 0.1 CALM 0 0 0 0 1022.6 1022.6 0.0
01/06:30am 7.4 6.7 7.0 97 0.2 CALM 0 0 0 0 1022.3 1022.3 0.0
01/06:00am 7.5 6.8 7.1 97 0.2 CALM 0 0 0 0 1022.1 1022.1 0.0
01/05:30am 7.4 6.7 7.0 97 0.2 CALM 0 0 0 0 1021.9 1021.9 0.0
01/05:00am 7.8 7.2 7.4 97 0.2 CALM 0 0 0 0 1021.6 1021.6 0.0
01/04:30am 7.6 6.9 7.0 96 0.3 CALM 0 0 0 0 1021.5 1021.5 0.0
01/04:00am 7.8 7.2 7.2 96 0.3 CALM 0 0 0 0 1021.4 1021.4 0.0
01/03:30am 8.4 7.8 7.6 95 0.4 CALM 0 0 0 0 1021.3 1021.3 0.0
01/03:00am 8.4 7.9 7.8 96 0.3 CALM 0 0 0 0 1021.4 1021.4 0.0
01/02:30am 8.7 8.2 7.9 95 0.4 CALM 0 0 0 0 1021.4 1021.4 0.0
01/02:00am 9.1 8.7 8.3 95 0.4 CALM 0 0 0 0 1021.5 1021.5 0.0
01/01:30am 9.1 8.7 8.2 94 0.4 CALM 0 0 0 0 1021.8 1021.8 0.0
01/01:00am 9.5 9.2 8.7 95 0.4 CALM 0 0 0 0 1021.9 1021.9 0.0
01/12:30am 9.8 9.6 9.0 95 0.4 CALM 0 0 0 0 1022.0 1022.0 0.0
01/12:00am 9.8 9.6 8.9 94 0.4 CALM 0 0 0 0 1022.1 1022.1 0.0
 
Date/Time
EST
Temp
°C
App
Temp
°C
Dew
Point
Rel
Hum
%
Delta-T
°C
Wind Press
QNH
hPa
Press
MSL
hPa
Rain
since 9 am
mm
Dir
 
Spd
km/h
Gust
km/h
Spd
kts
Gust
kts
31/11:30pm 10.1 9.7 8.4 89 0.8 CALM 0 0 0 0 1022.2 1022.2 0.0
31/11:00pm 10.7 10.6 9.3 91 0.7 CALM 0 0 0 0 1022.1 1022.1 0.0
31/10:30pm 11.1 11.0 9.5 90 0.8 CALM 0 0 0 0 1022.1 1022.1 0.0
31/10:00pm 11.8 11.1 10.0 89 0.9 SW 4 7 2 4 1021.8 1021.8 0.0
31/09:30pm 12.2 12.2 9.8 85 1.2 CALM 0 0 0 0 1021.6 1021.6 0.0
31/09:00pm 13.1 13.3 10.6 85 1.3 CALM 0 0 0 0 1021.3 1021.3 0.0
31/08:30pm 13.9 13.9 9.9 77 2.1 CALM 0 0 0 0 1021.1 1021.1 0.0
31/08:00pm 16.0 16.5 11.6 75 2.4 CALM 0 0 0 0 1021.0 1021.0 0.0
31/07:30pm 18.6 18.3 12.6 68 3.4 E 6 11 3 6 1020.7 1020.7 0.0
31/07:00pm 19.2 18.0 12.9 67 3.5 ENE 11 19 6 10 1020.5 1020.5 0.0
31/06:30pm 19.6 18.8 12.8 65 3.8 ENE 9 17 5 9 1020.4 1020.4 0.0
31/06:00pm 20.5 19.3 12.7 61 4.4 ENE 11 19 6 10 1020.3 1020.3 0.0
31/05:30pm 21.3 20.2 13.0 59 4.7 ENE 11 19 6 10 1020.3 1020.3 0.0
31/05:00pm 22.1 20.5 12.9 56 5.2 ENE 13 22 7 12 1020.1 1020.1 0.0
31/04:30pm 22.9 20.9 12.8 53 5.8 ENE 15 22 8 12 1019.8 1019.8 0.0
31/04:00pm 23.7 22.6 13.0 51 6.2 ENE 11 19 6 10 1019.8 1019.8 0.0
31/03:30pm 22.5 20.8 12.4 52 5.7 ENE 13 22 7 12 1019.9 1019.9 0.0
31/03:00pm 23.5 23.6 12.8 51 6.1 NNE 4 13 2 7 1020.0 1020.0 0.0
31/02:30pm 23.8 23.1 12.1 48 6.7 ENE 7 11 4 6 1020.3 1020.3 0.0
31/02:00pm 23.7 22.4 10.0 42 7.5 E 7 9 4 5 1020.5 1020.5 0.0
31/01:30pm 24.2 23.5 11.9 46 7.0 ENE 7 15 4 8 1020.9 1020.9 0.0
31/01:00pm 23.7 23.0 13.3 52 6.0 NE 9 13 5 7 1021.4 1021.4 0.0
31/12:30pm 23.0 22.1 12.6 52 5.9 S 9 17 5 9 1022.0 1022.0 0.0
31/12:00pm 22.2 21.6 13.5 57 5.0 SSE 9 15 5 8 1022.8 1022.8 0.0
31/11:30am 22.7 22.5 13.7 56 5.2 S 7 15 4 8 1023.2 1023.2 0.0
31/11:00am 21.4 20.8 14.6 65 4.0 SSE 11 15 6 8 1023.6 1023.6 0.0
31/10:30am 21.3 22.0 15.6 70 3.4 SE 6 13 3 7 1023.9 1023.9 0.0
31/10:00am 18.8 19.7 16.0 84 1.7 S 6 11 3 6 1024.3 1024.3 0.0
31/09:30am 16.4 17.0 15.9 97 0.3 SSW 7 11 4 6 1024.6 1024.6 0.0
31/09:00am 15.3 14.8 15.0 98 0.2 SW 11 15 6 8 1024.3 1024.3 0.2
31/08:30am 15.1 14.9 14.8 98 0.2 SSW 9 11 5 6 1023.8 1023.8 0.2
31/08:00am 14.7 15.0 14.4 98 0.2 SSW 6 9 3 5 1023.4 1023.4 0.2
31/07:30am 13.6 14.3 13.3 98 0.2 NNW 2 9 1 5 1023.3 1023.3 0.2
31/07:00am 11.9 12.4 11.6 98 0.2 CALM 0 7 0 4 1023.1 1023.1 0.2
31/06:30am 11.7 12.1 11.4 98 0.2 CALM 0 0 0 0 1023.0 1023.0 0.0
31/06:00am 11.4 11.8 11.1 98 0.2 CALM 0 0 0 0 1022.5 1022.5 0.0
31/05:30am 10.9 11.1 10.6 98 0.2 CALM 0 0 0 0 1022.0 1022.0 0.0
31/05:00am 10.6 10.7 10.3 98 0.2 CALM 0 0 0 0 1021.8 1021.8 0.0
31/04:30am 10.2 10.2 9.9 98 0.2 CALM 0 0 0 0 1021.9 1021.9 0.0
31/04:00am 10.0 9.6 9.7 98 0.1 SSE 2 7 1 4 1022.1 1022.1 0.0
31/03:30am 10.0 9.6 9.7 98 0.2 SSE 2 6 1 3 1022.2 1022.2 0.0
31/03:00am 9.3 8.3 8.7 96 0.3 SSE 4 7 2 4 1022.4 1022.4 0.0
31/02:30am 9.6 8.1 9.1 97 0.2 S 7 9 4 5 1022.4 1022.4 0.0
31/02:00am 9.5 8.8 8.7 95 0.4 SSE 2 7 1 4 1022.7 1022.7 0.0
31/01:30am 10.0 8.7 9.2 95 0.4 S 6 7 3 4 1022.8 1022.8 0.0
31/01:00am 10.1 9.9 9.2 94 0.4 CALM 0 6 0 3 1022.9 1022.9 0.0
31/12:30am 10.2 9.7 9.3 94 0.4 W 2 6 1 3 1023.2 1023.2 0.0
31/12:00am 10.4 10.3 9.6 95 0.4 CALM 0 0 0 0 1023.5 1023.5 0.0
 
Date/Time
EST
Temp
°C
App
Temp
°C
Dew
Point
Rel
Hum
%
Delta-T
°C
Wind Press
QNH
hPa
Press
MSL
hPa
Rain
since 9 am
mm
Dir
 
Spd
km/h
Gust
km/h
Spd
kts
Gust
kts
30/11:30pm 10.7 10.7 9.8 94 0.5 CALM 0 7 0 4 1023.9 1023.9 0.0
30/11:00pm 11.1 11.2 10.0 93 0.6 CALM 0 0 0 0 1024.0 1024.0 0.0
30/10:30pm 11.7 11.9 10.6 93 0.6 CALM 0 2 0 1 1024.2 1024.2 0.0
30/10:00pm 11.7 11.5 10.6 93 0.6 ESE 2 6 1 3 1024.3 1024.3 0.0
30/09:30pm 12.6 13.0 11.3 92 0.7 CALM 0 0 0 0 1024.4 1024.4 0.0
30/09:00pm 13.0 12.3 11.4 90 0.8 SW 6 9 3 5 1024.2 1024.2 0.0
30/08:30pm 13.7 14.2 11.7 88 1.1 CALM 0 0 0 0 1024.1 1024.1 0.0
30/08:00pm 14.5 15.0 11.6 83 1.5 CALM 0 0 0 0 1024.0 1024.0 0.0
30/07:30pm 15.4 16.1 12.3 82 1.7 CALM 0 0 0 0 1023.6 1023.6 0.0
30/07:00pm 16.9 17.6 12.2 74 2.6 CALM 0 0 0 0 1023.3 1023.3 0.0
30/06:30pm 18.9 19.2 13.3 70 3.2 ESE 4 7 2 4 1023.0 1023.0 0.0
30/06:00pm 19.5 18.8 13.2 67 3.6 SE 9 15 5 8 1022.6 1022.6 0.0
30/05:30pm 20.3 19.3 13.3 64 4.0 E 11 19 6 10 1022.4 1022.4 0.0
30/05:00pm 20.8 19.7 13.0 61 4.4 ESE 11 19 6 10 1022.2 1022.2 0.0
30/04:30pm 22.1 20.6 13.2 57 5.1 ESE 13 20 7 11 1022.1 1022.1 0.0
30/04:00pm 22.1 21.0 13.2 57 5.1 E 11 17 6 9 1022.2 1022.2 0.0
30/03:30pm 21.9 20.5 13.3 58 4.9 E 13 20 7 11 1022.3 1022.3 0.0
30/03:00pm 21.9 20.5 13.3 58 4.9 ESE 13 24 7 13 1022.3 1022.3 0.0
30/02:30pm 21.6 20.1 13.2 59 4.8 E 13 22 7 12 1022.6 1022.6 0.0
30/02:00pm 21.4 19.5 13.1 59 4.7 SE 15 30 8 16 1022.9 1022.9 0.0
30/01:30pm 22.6 20.2 12.8 54 5.6 ESE 17 28 9 15 1022.9 1022.9 0.0
30/01:00pm 22.1 20.8 13.7 59 4.9 ESE 13 24 7 13 1023.2 1023.2 0.0
30/12:30pm 19.9 19.9 15.1 74 2.8 SE 9 17 5 9 1023.8 1023.8 0.0

Other Formats:

Comma delimited format used in spreadsheet applications
http://www.bom.gov.au/fwo/IDQ60801/IDQ60801.95370.axf

JavaScript Object Notation format (JSON) in row-major order
http://www.bom.gov.au/fwo/IDQ60801/IDQ60801.95370.json